sensor_id;sensor_type;location;lat;lon;timestamp;P1;durP1;ratioP1;P2;durP2;ratioP2
67749;SDS011;54550;48.838;8.828;2023-01-25T00:01:51;181.70;;;39.97;;
67749;SDS011;54550;48.838;8.828;2023-01-25T00:04:20;209.83;;;42.90;;
67749;SDS011;54550;48.838;8.828;2023-01-25T00:06:47;202.82;;;41.58;;
67749;SDS011;54550;48.838;8.828;2023-01-25T00:09:13;187.10;;;40.60;;
67749;SDS011;54550;48.838;8.828;2023-01-25T00:11:39;192.60;;;40.50;;
67749;SDS011;54550;48.838;8.828;2023-01-25T00:14:04;207.93;;;44.53;;
67749;SDS011;54550;48.838;8.828;2023-01-25T00:16:30;186.32;;;42.58;;
67749;SDS011;54550;48.838;8.828;2023-01-25T00:18:56;203.90;;;43.23;;
67749;SDS011;54550;48.838;8.828;2023-01-25T00:21:22;224.97;;;44.40;;
67749;SDS011;54550;48.838;8.828;2023-01-25T00:23:49;236.05;;;45.40;;
67749;SDS011;54550;48.838;8.828;2023-01-25T00:26:15;235.45;;;44.42;;
67749;SDS011;54550;48.838;8.828;2023-01-25T00:28:41;217.10;;;42.95;;
67749;SDS011;54550;48.838;8.828;2023-01-25T00:39:48;234.07;;;45.13;;
67749;SDS011;54550;48.838;8.828;2023-01-25T00:42:15;425.17;;;50.20;;
67749;SDS011;54550;48.838;8.828;2023-01-25T00:44:41;360.58;;;49.75;;
67749;SDS011;54550;48.838;8.828;2023-01-25T00:47:07;324.40;;;46.50;;
67749;SDS011;54550;48.838;8.828;2023-01-25T00:49:34;388.23;;;50.40;;
67749;SDS011;54550;48.838;8.828;2023-01-25T00:58:44;935.63;;;72.07;;
67749;SDS011;54550;48.838;8.828;2023-01-25T01:01:10;659.23;;;59.97;;
67749;SDS011;54550;48.838;8.828;2023-01-25T01:03:35;967.92;;;75.65;;
67749;SDS011;54550;48.838;8.828;2023-01-25T01:06:06;754.58;;;65.40;;
67749;SDS011;54550;48.838;8.828;2023-01-25T01:14:57;551.45;;;54.17;;
67749;SDS011;54550;48.838;8.828;2023-01-25T01:17:23;717.30;;;59.53;;
67749;SDS011;54550;48.838;8.828;2023-01-25T01:19:48;835.53;;;66.30;;
67749;SDS011;54550;48.838;8.828;2023-01-25T01:22:14;921.37;;;72.37;;
67749;SDS011;54550;48.838;8.828;2023-01-25T01:24:39;1075.57;;;72.87;;
67749;SDS011;54550;48.838;8.828;2023-01-25T01:27:06;866.80;;;67.93;;
67749;SDS011;54550;48.838;8.828;2023-01-25T01:29:31;999.77;;;70.67;;
67749;SDS011;54550;48.838;8.828;2023-01-25T01:31:57;981.70;;;66.80;;
67749;SDS011;54550;48.838;8.828;2023-01-25T01:34:22;1005.70;;;64.20;;
67749;SDS011;54550;48.838;8.828;2023-01-25T01:36:48;1249.93;;;76.57;;
67749;SDS011;54550;48.838;8.828;2023-01-25T01:39:14;896.23;;;63.27;;
67749;SDS011;54550;48.838;8.828;2023-01-25T01:41:40;1021.50;;;72.00;;
67749;SDS011;54550;48.838;8.828;2023-01-25T01:44:08;1082.10;;;72.93;;
67749;SDS011;54550;48.838;8.828;2023-01-25T01:46:40;859.60;;;60.97;;
67749;SDS011;54550;48.838;8.828;2023-01-25T01:49:10;852.20;;;63.00;;
67749;SDS011;54550;48.838;8.828;2023-01-25T01:51:46;869.80;;;61.72;;
67749;SDS011;54550;48.838;8.828;2023-01-25T01:54:22;868.25;;;63.35;;
67749;SDS011;54550;48.838;8.828;2023-01-25T02:02:41;909.80;;;63.00;;
67749;SDS011;54550;48.838;8.828;2023-01-25T02:05:08;1022.47;;;69.80;;
67749;SDS011;54550;48.838;8.828;2023-01-25T02:07:38;775.45;;;56.03;;
67749;SDS011;54550;48.838;8.828;2023-01-25T02:10:05;950.45;;;71.38;;
67749;SDS011;54550;48.838;8.828;2023-01-25T02:12:34;840.80;;;63.28;;
67749;SDS011;54550;48.838;8.828;2023-01-25T02:15:01;747.92;;;62.28;;
67749;SDS011;54550;48.838;8.828;2023-01-25T02:17:27;676.97;;;52.30;;
67749;SDS011;54550;48.838;8.828;2023-01-25T02:22:39;973.72;;;72.97;;
67749;SDS011;54550;48.838;8.828;2023-01-25T02:25:10;920.42;;;66.68;;
67749;SDS011;54550;48.838;8.828;2023-01-25T02:27:38;871.03;;;70.05;;
67749;SDS011;54550;48.838;8.828;2023-01-25T02:30:08;858.63;;;69.13;;
67749;SDS011;54550;48.838;8.828;2023-01-25T02:32:34;826.50;;;69.97;;
67749;SDS011;54550;48.838;8.828;2023-01-25T02:34:59;876.33;;;75.07;;
67749;SDS011;54550;48.838;8.828;2023-01-25T02:37:25;669.93;;;58.43;;
67749;SDS011;54550;48.838;8.828;2023-01-25T02:39:51;616.30;;;60.50;;
67749;SDS011;54550;48.838;8.828;2023-01-25T02:42:17;649.20;;;56.55;;
67749;SDS011;54550;48.838;8.828;2023-01-25T02:44:42;642.60;;;60.50;;
67749;SDS011;54550;48.838;8.828;2023-01-25T02:47:08;457.83;;;53.50;;
67749;SDS011;54550;48.838;8.828;2023-01-25T02:49:35;535.07;;;54.70;;
67749;SDS011;54550;48.838;8.828;2023-01-25T02:52:01;437.48;;;52.25;;
67749;SDS011;54550;48.838;8.828;2023-01-25T02:54:28;679.05;;;58.17;;
67749;SDS011;54550;48.838;8.828;2023-01-25T02:56:54;498.30;;;53.87;;
67749;SDS011;54550;48.838;8.828;2023-01-25T02:59:20;465.33;;;51.90;;
67749;SDS011;54550;48.838;8.828;2023-01-25T03:01:45;467.43;;;51.87;;
67749;SDS011;54550;48.838;8.828;2023-01-25T03:04:11;455.20;;;52.70;;
67749;SDS011;54550;48.838;8.828;2023-01-25T03:06:37;356.80;;;49.10;;
67749;SDS011;54550;48.838;8.828;2023-01-25T03:09:04;316.83;;;48.75;;
67749;SDS011;54550;48.838;8.828;2023-01-25T03:11:31;321.33;;;50.33;;
67749;SDS011;54550;48.838;8.828;2023-01-25T03:13:57;315.43;;;48.70;;
67749;SDS011;54550;48.838;8.828;2023-01-25T03:16:23;258.30;;;48.70;;
67749;SDS011;54550;48.838;8.828;2023-01-25T03:18:51;329.03;;;49.70;;
67749;SDS011;54550;48.838;8.828;2023-01-25T03:21:20;285.80;;;43.80;;
67749;SDS011;54550;48.838;8.828;2023-01-25T03:23:47;328.85;;;45.90;;
67749;SDS011;54550;48.838;8.828;2023-01-25T03:26:18;310.98;;;45.15;;
67749;SDS011;54550;48.838;8.828;2023-01-25T03:28:45;368.10;;;48.22;;
67749;SDS011;54550;48.838;8.828;2023-01-25T03:31:12;297.13;;;45.30;;
67749;SDS011;54550;48.838;8.828;2023-01-25T03:33:39;267.63;;;42.38;;
67749;SDS011;54550;48.838;8.828;2023-01-25T03:36:05;314.08;;;42.70;;
67749;SDS011;54550;48.838;8.828;2023-01-25T03:38:31;313.80;;;46.92;;
67749;SDS011;54550;48.838;8.828;2023-01-25T03:40:58;593.75;;;53.53;;
67749;SDS011;54550;48.838;8.828;2023-01-25T03:43:23;362.77;;;46.87;;
67749;SDS011;54550;48.838;8.828;2023-01-25T03:45:59;368.20;;;49.45;;
67749;SDS011;54550;48.838;8.828;2023-01-25T03:48:25;359.58;;;45.30;;
67749;SDS011;54550;48.838;8.828;2023-01-25T03:50:53;355.35;;;44.75;;
67749;SDS011;54550;48.838;8.828;2023-01-25T03:53:20;287.73;;;45.22;;
67749;SDS011;54550;48.838;8.828;2023-01-25T03:55:59;403.60;;;43.53;;
67749;SDS011;54550;48.838;8.828;2023-01-25T03:58:26;446.17;;;47.47;;
67749;SDS011;54550;48.838;8.828;2023-01-25T04:00:53;425.38;;;45.28;;
67749;SDS011;54550;48.838;8.828;2023-01-25T04:03:20;474.65;;;47.30;;
67749;SDS011;54550;48.838;8.828;2023-01-25T04:05:46;494.35;;;50.38;;
67749;SDS011;54550;48.838;8.828;2023-01-25T04:08:12;490.87;;;47.63;;
67749;SDS011;54550;48.838;8.828;2023-01-25T04:10:38;571.75;;;49.28;;
67749;SDS011;54550;48.838;8.828;2023-01-25T04:13:04;508.70;;;45.00;;
67749;SDS011;54550;48.838;8.828;2023-01-25T04:15:29;519.77;;;48.10;;
67749;SDS011;54550;48.838;8.828;2023-01-25T04:17:55;541.67;;;48.87;;
67749;SDS011;54550;48.838;8.828;2023-01-25T04:20:21;689.43;;;51.17;;
67749;SDS011;54550;48.838;8.828;2023-01-25T04:22:46;620.77;;;48.47;;
67749;SDS011;54550;48.838;8.828;2023-01-25T04:25:12;614.77;;;50.30;;
67749;SDS011;54550;48.838;8.828;2023-01-25T04:27:37;707.37;;;56.70;;
67749;SDS011;54550;48.838;8.828;2023-01-25T04:30:03;583.37;;;45.57;;
67749;SDS011;54550;48.838;8.828;2023-01-25T04:32:29;674.70;;;51.60;;
67749;SDS011;54550;48.838;8.828;2023-01-25T04:34:56;603.87;;;48.90;;
67749;SDS011;54550;48.838;8.828;2023-01-25T04:37:21;641.63;;;49.50;;
67749;SDS011;54550;48.838;8.828;2023-01-25T04:39:47;685.47;;;54.70;;
67749;SDS011;54550;48.838;8.828;2023-01-25T04:42:12;538.70;;;47.23;;
67749;SDS011;54550;48.838;8.828;2023-01-25T04:44:38;932.10;;;61.63;;
67749;SDS011;54550;48.838;8.828;2023-01-25T04:47:03;823.07;;;57.90;;
67749;SDS011;54550;48.838;8.828;2023-01-25T04:49:29;783.03;;;53.00;;
67749;SDS011;54550;48.838;8.828;2023-01-25T04:51:55;695.93;;;52.50;;
67749;SDS011;54550;48.838;8.828;2023-01-25T04:54:20;452.03;;;43.07;;
67749;SDS011;54550;48.838;8.828;2023-01-25T04:56:46;475.10;;;42.60;;
67749;SDS011;54550;48.838;8.828;2023-01-25T04:59:11;402.77;;;41.27;;
67749;SDS011;54550;48.838;8.828;2023-01-25T05:01:37;435.70;;;43.27;;
67749;SDS011;54550;48.838;8.828;2023-01-25T05:04:02;353.37;;;40.47;;
67749;SDS011;54550;48.838;8.828;2023-01-25T05:06:28;303.00;;;39.97;;
67749;SDS011;54550;48.838;8.828;2023-01-25T05:08:53;270.67;;;39.87;;
67749;SDS011;54550;48.838;8.828;2023-01-25T05:11:19;312.10;;;43.80;;
67749;SDS011;54550;48.838;8.828;2023-01-25T05:13:44;555.33;;;50.47;;
67749;SDS011;54550;48.838;8.828;2023-01-25T05:16:10;415.00;;;46.40;;
67749;SDS011;54550;48.838;8.828;2023-01-25T05:18:36;397.83;;;41.37;;
67749;SDS011;54550;48.838;8.828;2023-01-25T05:21:01;405.53;;;43.40;;
67749;SDS011;54550;48.838;8.828;2023-01-25T05:23:27;555.57;;;52.67;;
67749;SDS011;54550;48.838;8.828;2023-01-25T05:25:52;585.47;;;49.83;;
67749;SDS011;54550;48.838;8.828;2023-01-25T05:28:36;713.97;;;52.45;;
67749;SDS011;54550;48.838;8.828;2023-01-25T05:31:02;663.47;;;52.53;;
67749;SDS011;54550;48.838;8.828;2023-01-25T05:33:28;563.22;;;48.22;;
67749;SDS011;54550;48.838;8.828;2023-01-25T05:35:54;551.97;;;54.60;;
67749;SDS011;54550;48.838;8.828;2023-01-25T05:38:20;403.67;;;45.10;;
67749;SDS011;54550;48.838;8.828;2023-01-25T05:40:46;182.10;;;36.23;;
67749;SDS011;54550;48.838;8.828;2023-01-25T05:43:11;388.30;;;46.83;;
67749;SDS011;54550;48.838;8.828;2023-01-25T05:45:37;335.10;;;48.37;;
67749;SDS011;54550;48.838;8.828;2023-01-25T05:48:04;573.13;;;72.97;;
67749;SDS011;54550;48.838;8.828;2023-01-25T05:50:30;466.17;;;62.07;;
67749;SDS011;54550;48.838;8.828;2023-01-25T05:52:55;493.83;;;49.73;;
67749;SDS011;54550;48.838;8.828;2023-01-25T05:55:21;417.77;;;55.03;;
67749;SDS011;54550;48.838;8.828;2023-01-25T05:57:46;438.20;;;50.37;;
67749;SDS011;54550;48.838;8.828;2023-01-25T06:00:12;527.47;;;60.73;;
67749;SDS011;54550;48.838;8.828;2023-01-25T06:02:38;677.65;;;51.15;;
67749;SDS011;54550;48.838;8.828;2023-01-25T06:05:04;406.40;;;41.00;;
67749;SDS011;54550;48.838;8.828;2023-01-25T06:07:33;711.27;;;52.40;;
67749;SDS011;54550;48.838;8.828;2023-01-25T06:10:00;797.22;;;70.32;;
67749;SDS011;54550;48.838;8.828;2023-01-25T06:12:27;680.05;;;57.40;;
67749;SDS011;54550;48.838;8.828;2023-01-25T06:14:52;756.07;;;52.17;;
67749;SDS011;54550;48.838;8.828;2023-01-25T06:17:18;672.23;;;58.63;;
67749;SDS011;54550;48.838;8.828;2023-01-25T06:19:43;714.63;;;55.10;;
67749;SDS011;54550;48.838;8.828;2023-01-25T06:22:09;626.47;;;57.93;;
67749;SDS011;54550;48.838;8.828;2023-01-25T06:24:34;509.67;;;51.83;;
67749;SDS011;54550;48.838;8.828;2023-01-25T06:27:00;410.23;;;43.90;;
67749;SDS011;54550;48.838;8.828;2023-01-25T06:29:25;641.00;;;57.23;;
67749;SDS011;54550;48.838;8.828;2023-01-25T06:31:51;255.57;;;39.90;;
67749;SDS011;54550;48.838;8.828;2023-01-25T06:34:17;547.27;;;47.03;;
67749;SDS011;54550;48.838;8.828;2023-01-25T06:36:42;512.47;;;48.40;;
67749;SDS011;54550;48.838;8.828;2023-01-25T06:39:08;639.73;;;68.37;;
67749;SDS011;54550;48.838;8.828;2023-01-25T06:41:33;397.83;;;50.90;;
67749;SDS011;54550;48.838;8.828;2023-01-25T06:43:59;231.60;;;45.77;;
67749;SDS011;54550;48.838;8.828;2023-01-25T06:46:25;206.13;;;36.97;;
67749;SDS011;54550;48.838;8.828;2023-01-25T06:48:50;194.17;;;43.47;;
67749;SDS011;54550;48.838;8.828;2023-01-25T06:51:16;301.53;;;58.77;;
67749;SDS011;54550;48.838;8.828;2023-01-25T06:53:43;232.38;;;44.25;;
67749;SDS011;54550;48.838;8.828;2023-01-25T06:56:11;283.67;;;50.72;;
67749;SDS011;54550;48.838;8.828;2023-01-25T06:58:38;186.38;;;35.60;;
67749;SDS011;54550;48.838;8.828;2023-01-25T07:01:05;192.70;;;36.13;;
67749;SDS011;54550;48.838;8.828;2023-01-25T07:03:35;238.32;;;43.20;;
67749;SDS011;54550;48.838;8.828;2023-01-25T07:06:02;200.13;;;42.17;;
67749;SDS011;54550;48.838;8.828;2023-01-25T07:08:29;193.68;;;37.35;;
67749;SDS011;54550;48.838;8.828;2023-01-25T07:10:56;203.82;;;35.97;;
67749;SDS011;54550;48.838;8.828;2023-01-25T07:13:24;199.57;;;37.67;;
67749;SDS011;54550;48.838;8.828;2023-01-25T07:15:54;208.18;;;39.20;;
67749;SDS011;54550;48.838;8.828;2023-01-25T07:18:22;208.85;;;39.35;;
67749;SDS011;54550;48.838;8.828;2023-01-25T07:20:49;237.05;;;48.22;;
67749;SDS011;54550;48.838;8.828;2023-01-25T07:23:15;208.07;;;37.17;;
67749;SDS011;54550;48.838;8.828;2023-01-25T07:25:48;164.30;;;35.60;;
67749;SDS011;54550;48.838;8.828;2023-01-25T07:28:14;184.07;;;37.25;;
67749;SDS011;54550;48.838;8.828;2023-01-25T07:30:41;184.38;;;37.38;;
67749;SDS011;54550;48.838;8.828;2023-01-25T07:33:07;163.85;;;33.42;;
67749;SDS011;54550;48.838;8.828;2023-01-25T07:35:34;171.88;;;37.22;;
67749;SDS011;54550;48.838;8.828;2023-01-25T07:38:00;194.00;;;36.93;;
67749;SDS011;54550;48.838;8.828;2023-01-25T07:40:25;223.47;;;39.20;;
67749;SDS011;54550;48.838;8.828;2023-01-25T07:42:51;178.50;;;37.57;;
67749;SDS011;54550;48.838;8.828;2023-01-25T07:45:17;182.63;;;36.43;;
67749;SDS011;54550;48.838;8.828;2023-01-25T07:47:42;168.83;;;37.73;;
67749;SDS011;54550;48.838;8.828;2023-01-25T07:50:08;147.23;;;33.77;;
67749;SDS011;54550;48.838;8.828;2023-01-25T07:52:34;178.20;;;32.40;;
67749;SDS011;54550;48.838;8.828;2023-01-25T07:55:00;150.17;;;35.13;;
67749;SDS011;54550;48.838;8.828;2023-01-25T07:57:25;166.73;;;34.97;;
67749;SDS011;54550;48.838;8.828;2023-01-25T07:59:55;157.10;;;33.75;;
67749;SDS011;54550;48.838;8.828;2023-01-25T08:02:21;150.50;;;35.17;;
67749;SDS011;54550;48.838;8.828;2023-01-25T08:04:46;144.37;;;32.93;;
67749;SDS011;54550;48.838;8.828;2023-01-25T08:07:12;159.07;;;35.60;;
67749;SDS011;54550;48.838;8.828;2023-01-25T08:09:39;176.95;;;39.80;;
67749;SDS011;54550;48.838;8.828;2023-01-25T08:12:06;225.32;;;39.25;;
67749;SDS011;54550;48.838;8.828;2023-01-25T08:14:32;204.60;;;39.63;;
67749;SDS011;54550;48.838;8.828;2023-01-25T08:16:57;152.77;;;35.60;;
67749;SDS011;54550;48.838;8.828;2023-01-25T08:19:23;215.40;;;40.03;;
67749;SDS011;54550;48.838;8.828;2023-01-25T08:21:50;163.90;;;36.72;;
67749;SDS011;54550;48.838;8.828;2023-01-25T08:24:15;221.87;;;42.30;;
67749;SDS011;54550;48.838;8.828;2023-01-25T08:26:41;260.77;;;40.77;;
67749;SDS011;54550;48.838;8.828;2023-01-25T08:29:08;262.33;;;44.47;;
67749;SDS011;54550;48.838;8.828;2023-01-25T08:31:35;228.38;;;41.97;;
67749;SDS011;54550;48.838;8.828;2023-01-25T08:34:03;247.10;;;44.67;;
67749;SDS011;54550;48.838;8.828;2023-01-25T08:36:29;245.60;;;43.78;;
67749;SDS011;54550;48.838;8.828;2023-01-25T08:38:56;235.47;;;48.33;;
67749;SDS011;54550;48.838;8.828;2023-01-25T08:41:23;201.20;;;44.50;;
67749;SDS011;54550;48.838;8.828;2023-01-25T08:43:51;230.95;;;43.80;;
67749;SDS011;54550;48.838;8.828;2023-01-25T08:46:18;234.73;;;45.17;;
67749;SDS011;54550;48.838;8.828;2023-01-25T08:48:45;184.85;;;40.92;;
67749;SDS011;54550;48.838;8.828;2023-01-25T08:51:11;227.67;;;46.00;;
67749;SDS011;54550;48.838;8.828;2023-01-25T08:53:38;221.13;;;40.17;;
67749;SDS011;54550;48.838;8.828;2023-01-25T08:56:04;197.57;;;39.40;;
67749;SDS011;54550;48.838;8.828;2023-01-25T08:58:32;208.95;;;38.90;;
67749;SDS011;54550;48.838;8.828;2023-01-25T09:01:02;226.60;;;45.65;;
67749;SDS011;54550;48.838;8.828;2023-01-25T09:03:29;252.48;;;44.50;;
67749;SDS011;54550;48.838;8.828;2023-01-25T09:05:55;239.93;;;43.35;;
67749;SDS011;54550;48.838;8.828;2023-01-25T09:08:21;198.23;;;42.00;;
67749;SDS011;54550;48.838;8.828;2023-01-25T09:10:47;202.47;;;42.73;;
67749;SDS011;54550;48.838;8.828;2023-01-25T09:13:12;234.07;;;40.00;;
67749;SDS011;54550;48.838;8.828;2023-01-25T09:15:38;232.70;;;42.67;;
67749;SDS011;54550;48.838;8.828;2023-01-25T09:18:04;210.68;;;43.67;;
67749;SDS011;54550;48.838;8.828;2023-01-25T09:20:29;208.87;;;41.17;;
67749;SDS011;54550;48.838;8.828;2023-01-25T09:22:55;217.80;;;44.00;;
67749;SDS011;54550;48.838;8.828;2023-01-25T09:25:21;181.37;;;39.00;;
67749;SDS011;54550;48.838;8.828;2023-01-25T09:27:49;204.27;;;40.00;;
67749;SDS011;54550;48.838;8.828;2023-01-25T09:30:16;213.05;;;43.95;;
67749;SDS011;54550;48.838;8.828;2023-01-25T09:32:42;198.23;;;37.20;;
67749;SDS011;54550;48.838;8.828;2023-01-25T09:35:07;179.00;;;39.83;;
67749;SDS011;54550;48.838;8.828;2023-01-25T09:37:33;222.80;;;41.20;;
67749;SDS011;54550;48.838;8.828;2023-01-25T09:39:59;199.27;;;39.10;;
67749;SDS011;54550;48.838;8.828;2023-01-25T09:50:33;184.68;;;38.53;;
67749;SDS011;54550;48.838;8.828;2023-01-25T09:55:38;173.57;;;38.83;;
67749;SDS011;54550;48.838;8.828;2023-01-25T09:58:08;161.00;;;35.38;;
67749;SDS011;54550;48.838;8.828;2023-01-25T10:00:45;134.88;;;36.78;;
67749;SDS011;54550;48.838;8.828;2023-01-25T10:06:02;169.90;;;38.58;;
67749;SDS011;54550;48.838;8.828;2023-01-25T10:08:46;162.57;;;36.53;;
67749;SDS011;54550;48.838;8.828;2023-01-25T10:11:25;137.35;;;36.60;;
67749;SDS011;54550;48.838;8.828;2023-01-25T10:13:53;152.80;;;38.90;;
67749;SDS011;54550;48.838;8.828;2023-01-25T10:21:43;114.03;;;33.47;;
67749;SDS011;54550;48.838;8.828;2023-01-25T10:24:27;136.20;;;32.45;;
67749;SDS011;54550;48.838;8.828;2023-01-25T10:27:22;167.32;;;33.45;;
67749;SDS011;54550;48.838;8.828;2023-01-25T10:30:12;117.40;;;32.38;;
67749;SDS011;54550;48.838;8.828;2023-01-25T10:32:46;129.48;;;36.13;;
67749;SDS011;54550;48.838;8.828;2023-01-25T10:35:15;140.70;;;38.83;;
67749;SDS011;54550;48.838;8.828;2023-01-25T10:37:43;157.55;;;42.53;;
67749;SDS011;54550;48.838;8.828;2023-01-25T10:42:47;108.97;;;33.70;;
67749;SDS011;54550;48.838;8.828;2023-01-25T10:45:19;110.50;;;33.30;;
67749;SDS011;54550;48.838;8.828;2023-01-25T10:47:46;105.00;;;32.10;;
67749;SDS011;54550;48.838;8.828;2023-01-25T10:53:34;80.38;;;29.67;;
67749;SDS011;54550;48.838;8.828;2023-01-25T10:58:36;95.15;;;33.53;;
67749;SDS011;54550;48.838;8.828;2023-01-25T11:01:07;103.40;;;29.25;;
67749;SDS011;54550;48.838;8.828;2023-01-25T11:03:40;111.80;;;31.50;;
67749;SDS011;54550;48.838;8.828;2023-01-25T11:06:08;85.60;;;28.38;;
67749;SDS011;54550;48.838;8.828;2023-01-25T11:08:38;86.73;;;28.90;;
67749;SDS011;54550;48.838;8.828;2023-01-25T11:11:25;81.07;;;25.75;;
67749;SDS011;54550;48.838;8.828;2023-01-25T11:14:13;73.28;;;27.15;;
67749;SDS011;54550;48.838;8.828;2023-01-25T11:16:42;80.40;;;27.95;;
67749;SDS011;54550;48.838;8.828;2023-01-25T11:19:27;78.43;;;27.90;;
67749;SDS011;54550;48.838;8.828;2023-01-25T11:21:56;73.10;;;25.02;;
67749;SDS011;54550;48.838;8.828;2023-01-25T11:24:29;68.22;;;24.98;;
67749;SDS011;54550;48.838;8.828;2023-01-25T11:27:15;71.20;;;23.98;;
67749;SDS011;54550;48.838;8.828;2023-01-25T11:29:41;80.05;;;25.65;;
67749;SDS011;54550;48.838;8.828;2023-01-25T11:32:15;66.73;;;24.83;;
67749;SDS011;54550;48.838;8.828;2023-01-25T11:34:46;62.83;;;25.83;;
67749;SDS011;54550;48.838;8.828;2023-01-25T11:40:19;60.53;;;23.70;;
67749;SDS011;54550;48.838;8.828;2023-01-25T11:46:07;58.97;;;22.58;;
67749;SDS011;54550;48.838;8.828;2023-01-25T11:51:42;73.35;;;26.05;;
67749;SDS011;54550;48.838;8.828;2023-01-25T11:54:35;53.65;;;21.27;;
67749;SDS011;54550;48.838;8.828;2023-01-25T12:05:22;50.53;;;19.20;;
67749;SDS011;54550;48.838;8.828;2023-01-25T12:27:20;43.80;;;18.52;;
67749;SDS011;54550;48.838;8.828;2023-01-25T12:30:10;43.70;;;19.17;;
67749;SDS011;54550;48.838;8.828;2023-01-25T12:32:49;40.03;;;19.52;;
67749;SDS011;54550;48.838;8.828;2023-01-25T12:38:30;47.53;;;19.75;;
67749;SDS011;54550;48.838;8.828;2023-01-25T12:41:10;40.33;;;19.25;;
67749;SDS011;54550;48.838;8.828;2023-01-25T12:43:47;61.60;;;22.77;;
67749;SDS011;54550;48.838;8.828;2023-01-25T12:46:25;74.80;;;29.05;;
67749;SDS011;54550;48.838;8.828;2023-01-25T12:48:57;43.85;;;17.33;;
67749;SDS011;54550;48.838;8.828;2023-01-25T12:51:28;40.95;;;18.58;;
67749;SDS011;54550;48.838;8.828;2023-01-25T12:54:01;41.10;;;18.75;;
67749;SDS011;54550;48.838;8.828;2023-01-25T12:56:55;33.08;;;16.60;;
67749;SDS011;54550;48.838;8.828;2023-01-25T12:59:46;36.63;;;17.02;;
67749;SDS011;54550;48.838;8.828;2023-01-25T13:02:24;39.85;;;19.67;;
67749;SDS011;54550;48.838;8.828;2023-01-25T13:05:15;37.83;;;18.77;;
67749;SDS011;54550;48.838;8.828;2023-01-25T13:08:16;37.08;;;17.83;;
67749;SDS011;54550;48.838;8.828;2023-01-25T13:10:56;36.30;;;18.40;;
67749;SDS011;54550;48.838;8.828;2023-01-25T13:13:38;34.47;;;19.30;;
67749;SDS011;54550;48.838;8.828;2023-01-25T13:18:57;36.30;;;18.08;;
67749;SDS011;54550;48.838;8.828;2023-01-25T13:21:42;32.58;;;16.95;;
67749;SDS011;54550;48.838;8.828;2023-01-25T13:24:16;34.58;;;17.65;;
67749;SDS011;54550;48.838;8.828;2023-01-25T13:32:11;33.70;;;17.33;;
67749;SDS011;54550;48.838;8.828;2023-01-25T13:37:24;37.00;;;18.30;;
67749;SDS011;54550;48.838;8.828;2023-01-25T13:39:55;35.70;;;18.02;;
67749;SDS011;54550;48.838;8.828;2023-01-25T13:42:28;44.45;;;21.08;;
67749;SDS011;54550;48.838;8.828;2023-01-25T13:45:12;40.40;;;18.80;;
67749;SDS011;54550;48.838;8.828;2023-01-25T13:47:42;28.90;;;15.52;;
67749;SDS011;54550;48.838;8.828;2023-01-25T13:50:23;33.17;;;16.33;;
67749;SDS011;54550;48.838;8.828;2023-01-25T13:53:04;39.67;;;20.10;;
67749;SDS011;54550;48.838;8.828;2023-01-25T13:55:42;32.10;;;17.20;;
67749;SDS011;54550;48.838;8.828;2023-01-25T13:58:20;33.78;;;16.30;;
67749;SDS011;54550;48.838;8.828;2023-01-25T14:00:50;34.85;;;16.30;;
67749;SDS011;54550;48.838;8.828;2023-01-25T14:03:29;29.60;;;14.77;;
67749;SDS011;54550;48.838;8.828;2023-01-25T14:05:59;32.15;;;14.60;;
67749;SDS011;54550;48.838;8.828;2023-01-25T14:08:29;30.45;;;16.27;;
67749;SDS011;54550;48.838;8.828;2023-01-25T14:10:56;37.72;;;16.40;;
67749;SDS011;54550;48.838;8.828;2023-01-25T14:13:22;35.43;;;16.83;;
67749;SDS011;54550;48.838;8.828;2023-01-25T14:15:58;35.30;;;16.27;;
67749;SDS011;54550;48.838;8.828;2023-01-25T14:21:30;33.40;;;17.25;;
67749;SDS011;54550;48.838;8.828;2023-01-25T14:23:49;40.25;;;16.05;;
67749;SDS011;54550;48.838;8.828;2023-01-25T14:26:25;36.88;;;17.98;;
67749;SDS011;54550;48.838;8.828;2023-01-25T14:28:52;34.55;;;16.80;;
67749;SDS011;54550;48.838;8.828;2023-01-25T14:31:21;43.78;;;17.77;;
67749;SDS011;54550;48.838;8.828;2023-01-25T14:33:49;33.70;;;16.10;;
67749;SDS011;54550;48.838;8.828;2023-01-25T14:36:22;45.75;;;18.58;;
67749;SDS011;54550;48.838;8.828;2023-01-25T14:38:52;35.15;;;17.85;;
67749;SDS011;54550;48.838;8.828;2023-01-25T14:41:30;36.80;;;17.73;;
67749;SDS011;54550;48.838;8.828;2023-01-25T14:44:02;47.40;;;19.00;;
67749;SDS011;54550;48.838;8.828;2023-01-25T14:46:31;35.10;;;19.58;;
67749;SDS011;54550;48.838;8.828;2023-01-25T14:49:08;44.58;;;20.10;;
67749;SDS011;54550;48.838;8.828;2023-01-25T14:51:41;50.35;;;18.75;;
67749;SDS011;54550;48.838;8.828;2023-01-25T14:54:19;52.15;;;20.90;;
67749;SDS011;54550;48.838;8.828;2023-01-25T14:56:48;39.00;;;18.40;;
67749;SDS011;54550;48.838;8.828;2023-01-25T14:59:27;47.15;;;18.88;;
67749;SDS011;54550;48.838;8.828;2023-01-25T15:01:57;48.15;;;23.48;;
67749;SDS011;54550;48.838;8.828;2023-01-25T15:04:50;48.60;;;21.17;;
67749;SDS011;54550;48.838;8.828;2023-01-25T15:10:29;82.20;;;34.35;;
67749;SDS011;54550;48.838;8.828;2023-01-25T15:12:57;60.40;;;26.23;;
67749;SDS011;54550;48.838;8.828;2023-01-25T15:15:35;47.20;;;18.63;;
67749;SDS011;54550;48.838;8.828;2023-01-25T15:18:01;43.67;;;19.40;;
67749;SDS011;54550;48.838;8.828;2023-01-25T15:20:28;43.50;;;19.27;;
67749;SDS011;54550;48.838;8.828;2023-01-25T15:23:44;41.20;;;18.83;;
67749;SDS011;54550;48.838;8.828;2023-01-25T15:25:54;46.17;;;20.73;;
67749;SDS011;54550;48.838;8.828;2023-01-25T15:28:21;52.45;;;20.15;;
67749;SDS011;54550;48.838;8.828;2023-01-25T15:30:48;54.83;;;20.10;;
67749;SDS011;54550;48.838;8.828;2023-01-25T15:33:16;51.70;;;20.48;;
67749;SDS011;54550;48.838;8.828;2023-01-25T15:35:44;52.88;;;22.75;;
67749;SDS011;54550;48.838;8.828;2023-01-25T15:38:11;50.10;;;19.97;;
67749;SDS011;54550;48.838;8.828;2023-01-25T15:40:38;46.28;;;20.50;;
67749;SDS011;54550;48.838;8.828;2023-01-25T15:43:03;44.40;;;20.67;;
67749;SDS011;54550;48.838;8.828;2023-01-25T15:45:29;43.60;;;20.33;;
67749;SDS011;54550;48.838;8.828;2023-01-25T15:47:54;45.60;;;20.63;;
67749;SDS011;54550;48.838;8.828;2023-01-25T15:50:22;59.90;;;23.45;;
67749;SDS011;54550;48.838;8.828;2023-01-25T15:52:48;62.67;;;23.17;;
67749;SDS011;54550;48.838;8.828;2023-01-25T15:55:13;63.77;;;24.77;;
67749;SDS011;54550;48.838;8.828;2023-01-25T15:57:39;64.40;;;26.90;;
67749;SDS011;54550;48.838;8.828;2023-01-25T16:00:13;56.33;;;24.48;;
67749;SDS011;54550;48.838;8.828;2023-01-25T16:02:40;60.95;;;27.50;;
67749;SDS011;54550;48.838;8.828;2023-01-25T16:05:06;136.47;;;54.40;;
67749;SDS011;54550;48.838;8.828;2023-01-25T16:07:32;125.50;;;48.07;;
67749;SDS011;54550;48.838;8.828;2023-01-25T16:10:01;77.40;;;31.08;;
67749;SDS011;54550;48.838;8.828;2023-01-25T16:12:28;66.72;;;25.75;;
67749;SDS011;54550;48.838;8.828;2023-01-25T16:14:56;77.40;;;30.23;;
67749;SDS011;54550;48.838;8.828;2023-01-25T16:17:24;65.05;;;25.25;;
67749;SDS011;54550;48.838;8.828;2023-01-25T16:19:51;79.30;;;31.00;;